Time;durP1;ratioP1;P1;durP2;ratioP2;P2;SDS_P1;SDS_P2;PMS_P1;PMS_P2;Temp;Humidity;BMP_temperature;BMP_pressure;BME280_temperature;BME280_humidity;BME280_pressure;Samples;Min_cycle;Max_cycle;Signal;HPM_P1;HPM_P2
2022/04/04 00:01:26;;;;;;;15.97;7.20;;;;;;;1.76;69.56;100416.13;124015;1102;104217;-78
2022/04/04 00:03:57;;;;;;;16.23;7.83;;;;;;;1.74;69.37;100422.86;123786;1099;104294;-78
2022/04/04 00:06:31;;;;;;;16.97;7.50;;;;;;;1.74;69.26;100428.03;123773;1099;104380;-78
2022/04/04 00:09:08;;;;;;;15.83;7.40;;;;;;;1.73;69.24;100423.67;124037;1102;104400;-78
2022/04/04 00:11:43;;;;;;;15.13;7.47;;;;;;;1.72;69.30;100420.98;123986;1102;104223;-79
2022/04/04 00:14:21;;;;;;;16.40;7.50;;;;;;;1.70;68.90;100431.22;123844;1102;104284;-78
2022/04/04 00:17:00;;;;;;;18.47;8.07;;;;;;;1.69;69.59;100431.11;124065;1102;104246;-77
2022/04/04 00:19:32;;;;;;;17.20;7.87;;;;;;;1.69;68.88;100432.00;123898;1102;104316;-77
2022/04/04 00:22:07;;;;;;;15.30;7.20;;;;;;;1.68;69.25;100440.54;123752;1102;104246;-78
2022/04/04 00:24:39;;;;;;;15.17;7.83;;;;;;;1.69;69.17;100446.63;123919;1099;104271;-78
2022/04/04 00:27:12;;;;;;;17.77;8.27;;;;;;;1.67;69.41;100449.11;124043;1099;104290;-78
2022/04/04 00:29:49;;;;;;;18.27;8.00;;;;;;;1.65;68.91;100449.78;123882;1102;104255;-78
2022/04/04 00:32:24;;;;;;;21.02;8.55;;;;;;;1.64;69.42;100448.89;124089;1102;105010;-78
2022/04/04 00:34:55;;;;;;;16.02;7.67;;;;;;;1.61;68.82;100459.91;124009;1102;104290;-78
2022/04/04 00:37:28;;;;;;;16.40;7.73;;;;;;;1.58;68.77;100462.28;123987;1102;104367;-78
2022/04/04 00:40:02;;;;;;;15.80;7.23;;;;;;;1.58;68.84;100463.98;123798;1102;104442;-79
2022/04/04 00:42:36;;;;;;;16.47;7.30;;;;;;;1.57;68.62;100468.27;124054;1102;104450;-78
2022/04/04 00:45:11;;;;;;;14.37;7.10;;;;;;;1.57;68.98;100467.34;123696;1102;104405;-80
2022/04/04 00:47:44;;;;;;;15.27;7.43;;;;;;;1.56;68.93;100465.57;124039;1102;104323;-78
2022/04/04 00:50:18;;;;;;;15.83;8.13;;;;;;;1.55;68.55;100464.65;123951;1101;104338;-78
2022/04/04 00:53:05;;;;;;;17.25;7.85;;;;;;;1.56;68.92;100475.91;123803;1102;104409;-78
2022/04/04 00:55:40;;;;;;;17.55;7.40;;;;;;;1.53;69.06;100471.41;123885;1102;104424;-78
2022/04/04 00:58:18;;;;;;;17.03;7.67;;;;;;;1.51;68.92;100466.91;124202;1102;104166;-78
2022/04/04 01:01:13;;;;;;;16.77;7.67;;;;;;;1.48;68.63;100466.69;123951;1102;104530;-77
2022/04/04 01:03:45;;;;;;;17.60;8.50;;;;;;;1.48;68.66;100472.78;124074;1102;104392;-77
2022/04/04 01:06:20;;;;;;;17.97;7.93;;;;;;;1.46;68.23;100476.92;123961;1099;104265;-77
2022/04/04 01:08:57;;;;;;;18.00;8.13;;;;;;;1.43;68.61;100477.63;124104;1099;104325;-77
2022/04/04 01:11:33;;;;;;;16.23;7.60;;;;;;;1.41;68.40;100479.17;123996;1099;104373;-78
2022/04/04 01:14:05;;;;;;;15.60;8.00;;;;;;;1.40;68.32;100477.41;124002;1099;104482;-78
2022/04/04 01:16:39;;;;;;;16.43;7.40;;;;;;;1.39;68.67;100474.70;124043;1102;104219;-78
2022/04/04 01:19:10;;;;;;;16.48;7.83;;;;;;;1.36;68.81;100475.38;123836;1102;104226;-78
2022/04/04 01:21:42;;;;;;;19.07;8.10;;;;;;;1.37;68.21;100484.02;123957;1102;104309;-78
2022/04/04 01:24:18;;;;;;;18.23;8.20;;;;;;;1.37;67.87;100486.60;123952;1102;104720;-78
2022/04/04 01:26:53;;;;;;;17.77;8.73;;;;;;;1.36;68.51;100495.17;123801;1099;104336;-79
2022/04/04 01:29:22;;;;;;;;;;;;;;;1.33;68.41;100485.49;123959;1099;104315;-79
2022/04/04 01:31:55;;;;;;;16.43;6.93;;;;;;;1.32;68.13;100512.13;124055;1099;104341;-78
2022/04/04 01:34:30;;;;;;;17.50;8.43;;;;;;;1.29;68.38;100501.56;123971;1102;104409;-78
2022/04/04 01:37:06;;;;;;;17.80;7.30;;;;;;;1.27;68.21;100508.31;124005;1102;104252;-78
2022/04/04 01:39:37;;;;;;;17.47;7.93;;;;;;;1.27;67.99;100499.67;123759;1100;104283;-78
2022/04/04 01:42:18;;;;;;;16.30;7.60;;;;;;;1.24;67.83;100505.51;124180;1100;104226;-78
2022/04/04 01:44:51;;;;;;;16.33;7.37;;;;;;;1.22;68.19;100507.09;123994;1099;104382;-78
2022/04/04 01:47:22;;;;;;;;;;;;;;;1.22;67.57;100509.68;124056;1102;104315;-78
2022/04/04 01:49:58;;;;;;;17.87;7.97;;;;;;;1.20;67.84;100506.98;123984;1102;104373;-77
2022/04/04 01:52:34;;;;;;;16.75;7.50;;;;;;;1.17;67.92;100504.17;123642;1102;104422;-77
2022/04/04 01:55:14;;;;;;;18.52;8.40;;;;;;;1.16;67.53;100498.89;123812;1100;104294;-77
2022/04/04 01:57:49;;;;;;;20.33;9.90;;;;;;;1.14;67.66;100501.36;124047;1102;104162;-77
2022/04/04 02:00:22;;;;;;;23.25;11.25;;;;;;;1.16;67.77;100509.23;123899;1102;104245;-78
2022/04/04 02:02:55;;;;;;;24.27;11.20;;;;;;;1.14;68.28;100505.61;123933;1102;104239;-79
2022/04/04 02:05:28;;;;;;;19.30;9.53;;;;;;;1.12;67.93;100514.95;124045;1102;104291;-78
2022/04/04 02:08:09;;;;;;;19.33;8.93;;;;;;;1.12;67.96;100512.36;124039;1102;104268;-77
2022/04/04 02:10:42;;;;;;;20.40;8.67;;;;;;;1.08;67.56;100512.14;124014;1102;104242;-77
2022/04/04 02:13:19;;;;;;;17.37;7.57;;;;;;;1.07;68.02;100523.25;123923;1102;104286;-77
2022/04/04 02:15:50;;;;;;;18.47;7.30;;;;;;;1.05;67.44;100521.36;124038;1102;104249;-77
2022/04/04 02:18:28;;;;;;;16.30;7.70;;;;;;;1.03;67.42;100526.41;124105;1102;104325;-78
2022/04/04 02:21:07;;;;;;;17.03;8.07;;;;;;;1.01;67.67;100524.49;124185;1102;104335;-78
2022/04/04 02:23:40;;;;;;;17.70;8.07;;;;;;;1.00;67.68;100522.72;124010;1102;104251;-78
2022/04/04 02:26:15;;;;;;;16.87;7.80;;;;;;;0.98;67.59;100535.52;124103;1102;104306;-78
2022/04/04 02:28:53;;;;;;;16.23;7.57;;;;;;;0.96;67.71;100536.18;123982;1102;104497;-79
2022/04/04 02:31:29;;;;;;;17.17;8.03;;;;;;;0.94;67.32;100543.81;124177;1102;104270;-77
2022/04/04 02:34:10;;;;;;;17.07;8.03;;;;;;;0.91;67.22;100543.59;124050;1102;104256;-77
2022/04/04 02:36:45;;;;;;;17.27;7.60;;;;;;;0.91;67.08;100537.53;123630;1102;104387;-77
2022/04/04 02:39:19;;;;;;;16.93;8.20;;;;;;;0.88;67.46;100540.77;124146;1102;104344;-77
2022/04/04 02:41:56;;;;;;;18.43;7.87;;;;;;;0.86;66.83;100548.41;123789;1100;104650;-77
2022/04/04 02:44:32;;;;;;;18.03;7.87;;;;;;;0.84;67.34;100541.31;123462;1102;104332;-78
2022/04/04 02:47:08;;;;;;;15.70;7.40;;;;;;;0.81;67.43;100543.67;123949;1102;104224;-78
2022/04/04 02:49:41;;;;;;;19.27;8.23;;;;;;;0.78;66.65;100546.02;123724;1102;104428;-78
2022/04/04 02:52:16;;;;;;;17.30;7.80;;;;;;;0.75;67.32;100548.38;124014;1102;104332;-78
2022/04/04 02:54:50;;;;;;;17.93;8.40;;;;;;;0.75;67.42;100556.13;123579;1102;104431;-78
2022/04/04 02:57:23;;;;;;;19.33;9.00;;;;;;;0.73;67.33;100557.70;123548;1102;104543;-79
2022/04/04 02:59:56;;;;;;;20.50;9.40;;;;;;;0.71;67.32;100563.64;124056;1102;104354;-77
2022/04/04 03:02:28;;;;;;;18.80;8.73;;;;;;;0.70;67.83;100568.69;123929;1102;104348;-78
2022/04/04 03:05:02;;;;;;;19.27;9.53;;;;;;;0.67;68.04;100564.21;123952;1102;104680;-78
2022/04/04 03:07:34;;;;;;;17.93;9.47;;;;;;;0.66;67.20;100571.84;123586;1102;104457;-77
2022/04/04 03:10:07;;;;;;;21.27;9.80;;;;;;;0.64;67.29;100579.47;123742;1102;104447;-79
2022/04/04 03:12:52;;;;;;;21.27;10.00;;;;;;;0.64;67.27;100584.64;123726;1101;104351;-78
2022/04/04 03:15:25;;;;;;;20.70;9.03;;;;;;;0.64;67.32;100600.13;123374;1102;104457;-79
2022/04/04 03:17:58;;;;;;;21.77;9.33;;;;;;;0.64;67.37;100610.47;123953;1102;104214;-78
2022/04/04 03:20:31;;;;;;;22.00;9.77;;;;;;;0.63;66.99;100606.07;123763;1102;104354;-79
2022/04/04 03:23:05;;;;;;;18.13;8.03;;;;;;;0.62;67.29;100612.00;123742;1102;104325;-78
2022/04/04 03:25:38;;;;;;;18.30;8.30;;;;;;;0.60;67.08;100603.25;123830;1102;104794;-78
2022/04/04 03:28:13;;;;;;;19.00;8.73;;;;;;;0.60;67.15;100618.75;123700;1102;104332;-78
2022/04/04 03:30:48;;;;;;;19.93;9.27;;;;;;;0.59;66.93;100619.52;123933;1102;104242;-77
2022/04/04 03:33:22;;;;;;;18.57;7.73;;;;;;;0.59;67.05;100623.80;124184;1102;104261;-77
2022/04/04 03:35:54;;;;;;;18.12;8.10;;;;;;;0.59;66.85;100626.38;123901;1102;104357;-78
2022/04/04 03:38:27;;;;;;;21.20;8.55;;;;;;;0.59;67.01;100632.42;124100;1102;104619;-77
2022/04/04 03:40:58;;;;;;;19.10;8.80;;;;;;;0.58;67.30;100629.73;123990;1102;110599;-77
2022/04/04 03:43:31;;;;;;;20.03;8.97;;;;;;;0.59;67.56;100644.45;124095;1102;104312;-78
2022/04/04 03:46:07;;;;;;;17.05;7.40;;;;;;;0.58;67.10;100646.14;124301;1099;104223;-77
2022/04/04 03:48:45;;;;;;;19.20;8.30;;;;;;;0.56;66.88;100650.27;124237;1099;104399;-77
2022/04/04 03:51:19;;;;;;;19.10;8.65;;;;;;;0.57;67.40;100648.61;124319;1102;104269;-78
2022/04/04 03:53:52;;;;;;;19.82;8.68;;;;;;;0.57;67.18;100651.19;123591;1100;104288;-79
2022/04/04 03:56:25;;;;;;;18.93;8.57;;;;;;;0.57;66.99;100654.66;123426;1102;104343;-79
2022/04/04 03:58:57;;;;;;;20.17;8.98;;;;;;;0.57;67.24;100659.83;123246;1102;104245;-79
2022/04/04 04:01:30;;;;;;;16.93;7.77;;;;;;;0.58;66.75;100659.05;123684;1102;104325;-79
2022/04/04 04:04:04;;;;;;;19.43;8.63;;;;;;;0.60;67.27;100659.17;123485;1101;104386;-77
2022/04/04 04:06:37;;;;;;;20.17;8.87;;;;;;;0.58;67.19;100661.64;123644;1102;104271;-78
2022/04/04 04:09:10;;;;;;;19.60;9.17;;;;;;;0.60;67.36;100669.50;123328;1102;104248;-79
2022/04/04 04:11:44;;;;;;;19.20;9.33;;;;;;;0.60;67.29;100670.39;123492;1100;118942;-79
2022/04/04 04:14:19;;;;;;;20.20;8.97;;;;;;;0.63;67.23;100672.33;123629;1102;104380;-79
2022/04/04 04:16:53;;;;;;;20.57;8.57;;;;;;;0.66;67.25;100678.63;123509;1102;104405;-79
2022/04/04 04:22:15;;;;;;;21.30;8.67;;;;;;;0.72;67.11;100670.46;123230;1102;104344;-77
2022/04/04 04:24:47;;;;;;;22.13;10.27;;;;;;;0.75;67.20;100669.77;123189;1102;104399;-78
2022/04/04 04:27:19;;;;;;;21.17;9.37;;;;;;;0.76;67.20;100667.31;123080;1100;104322;-77
2022/04/04 04:29:51;;;;;;;22.77;8.83;;;;;;;0.79;67.24;100680.47;123178;1102;104358;-77
2022/04/04 04:32:25;;;;;;;19.83;9.07;;;;;;;0.85;67.39;100687.80;123148;1099;104821;-78
2022/04/04 04:34:57;;;;;;;21.07;9.53;;;;;;;0.89;67.51;100679.52;123143;1099;104310;-78
2022/04/04 04:37:28;;;;;;;21.10;9.20;;;;;;;0.93;66.94;100681.53;123106;1102;104351;-77
2022/04/04 04:39:59;;;;;;;23.83;9.47;;;;;;;0.97;67.12;100696.50;123082;1099;104313;-78
2022/04/04 04:42:33;;;;;;;22.23;9.73;;;;;;;1.01;67.11;100692.46;123029;1102;104354;-78
2022/04/04 04:45:08;;;;;;;22.13;9.70;;;;;;;1.03;66.61;100691.81;123098;1102;104656;-78
2022/04/04 04:47:40;;;;;;;19.40;9.17;;;;;;;1.07;67.08;100706.75;123136;1102;104399;-77
2022/04/04 04:50:14;;;;;;;20.17;9.50;;;;;;;1.14;67.12;100712.38;123191;1102;104309;-77
2022/04/04 04:52:46;;;;;;;19.57;9.33;;;;;;;1.17;67.12;100708.37;123249;1102;108185;-78
2022/04/04 04:55:22;;;;;;;22.57;9.33;;;;;;;1.22;66.94;100716.48;123319;1099;104239;-77
2022/04/04 04:57:55;;;;;;;20.63;9.30;;;;;;;1.24;67.37;100723.55;123334;1099;104332;-77
2022/04/04 05:00:29;;;;;;;24.83;8.90;;;;;;;1.30;66.73;100717.06;123555;1102;104268;-77
2022/04/04 05:05:49;;;;;;;19.67;8.37;;;;;;;1.37;66.33;100724.48;123326;1102;104377;-78
2022/04/04 05:08:21;;;;;;;18.67;8.23;;;;;;;1.41;65.54;100723.94;123383;1102;104297;-78
2022/04/04 05:10:53;;;;;;;17.87;7.70;;;;;;;1.44;64.92;100730.23;123394;1102;104223;-77
2022/04/04 05:13:26;;;;;;;19.40;7.95;;;;;;;1.51;65.45;100738.46;123313;1099;104641;-76
2022/04/04 05:15:58;;;;;;;16.80;7.57;;;;;;;1.54;64.97;100729.27;123313;1099;104222;-77
2022/04/04 05:18:30;;;;;;;18.47;8.87;;;;;;;1.61;65.10;100740.97;123191;1099;104245;-76
2022/04/04 05:21:03;;;;;;;19.53;8.27;;;;;;;1.68;65.17;100740.62;123201;1101;104300;-76
2022/04/04 05:23:35;;;;;;;21.10;8.55;;;;;;;1.72;64.61;100745.25;123334;1102;104335;-79
2022/04/04 05:26:06;;;;;;;18.40;8.30;;;;;;;1.80;65.24;100753.59;123607;1102;104290;-78
2022/04/04 05:28:38;;;;;;;18.53;8.03;;;;;;;1.84;63.46;100749.53;123430;1102;104396;-78
2022/04/04 05:31:22;;;;;;;18.10;7.60;;;;;;;1.87;63.29;100755.86;123701;1102;104457;-78
2022/04/04 05:34:10;;;;;;;20.37;8.10;;;;;;;1.93;63.78;100763.16;123770;1099;104261;-79
2022/04/04 05:36:44;;;;;;;18.83;7.70;;;;;;;2.02;62.98;100745.72;124649;1099;104178;-78
2022/04/04 05:39:22;;;;;;;18.13;8.10;;;;;;;2.10;62.41;100754.05;124216;1102;104258;-78
2022/04/04 05:41:59;;;;;;;19.70;7.63;;;;;;;2.14;60.89;100758.68;123918;1102;104432;-78
2022/04/04 05:44:49;;;;;;;17.90;7.67;;;;;;;2.18;61.74;100755.50;123950;1102;102534;-78
2022/04/04 05:47:51;;;;;;;18.47;7.90;;;;;;;2.24;59.34;100762.84;124373;1102;104265;-78
2022/04/04 05:51:18;;;;;;;18.90;8.13;;;;;;;2.27;60.46;100761.36;125302;1102;104175;-78
2022/04/04 05:54:24;;;;;;;18.10;7.67;;;;;;;2.34;60.61;100765.32;125224;1102;104342;-79
2022/04/04 05:57:57;;;;;;;15.87;6.93;;;;;;;2.38;58.63;100774.20;124866;1101;104172;-79
2022/04/04 06:01:00;;;;;;;17.70;7.37;;;;;;;2.45;60.30;100761.81;125688;1105;102113;-80
2022/04/04 06:03:37;;;;;;;17.57;7.10;;;;;;;2.51;59.75;100764.84;125073;1105;101838;-79
2022/04/04 06:06:08;;;;;;;18.50;7.53;;;;;;;2.61;57.72;100763.80;123983;1105;104418;-79
2022/04/04 06:08:40;;;;;;;17.30;7.03;;;;;;;2.69;59.23;100761.76;123782;1105;106803;-80
2022/04/04 06:11:25;;;;;;;17.10;7.15;;;;;;;2.76;59.03;100776.97;123611;1105;104310;-77
2022/04/04 06:13:58;;;;;;;15.20;6.63;;;;;;;2.82;57.26;100785.18;123433;1105;104268;-80
2022/04/04 06:16:30;;;;;;;14.63;6.73;;;;;;;2.81;56.48;100788.55;124041;1105;104193;-79
2022/04/04 06:19:49;;;;;;;18.80;7.23;;;;;;;2.84;57.72;100780.99;124398;1105;104382;-83
2022/04/04 06:22:27;;;;;;;17.77;6.80;;;;;;;2.92;57.60;100784.12;124415;1105;104361;-79
2022/04/04 06:24:58;;;;;;;18.00;7.27;;;;;;;2.98;57.06;100792.34;124463;1105;104121;-78
2022/04/04 06:27:34;;;;;;;17.00;6.87;;;;;;;3.06;55.19;100801.55;124762;1105;104179;-79
2022/04/04 06:30:11;;;;;;;16.03;6.33;;;;;;;3.09;55.79;100790.51;124532;1105;104322;-78
2022/04/04 06:32:48;;;;;;;16.40;6.40;;;;;;;3.10;53.33;100792.32;124330;1105;104419;-79
2022/04/04 06:35:23;;;;;;;16.93;6.70;;;;;;;3.14;52.88;100802.09;124221;1102;104220;-79
2022/04/04 06:38:00;;;;;;;13.50;6.92;;;;;;;3.22;54.67;100800.92;124651;1102;104343;-79
2022/04/04 06:40:31;;;;;;;16.70;6.50;;;;;;;3.33;55.18;100799.08;124012;1102;104296;-79
2022/04/04 06:43:03;;;;;;;17.23;6.97;;;;;;;3.44;53.75;100801.53;124223;1102;104346;-78
2022/04/04 06:45:32;;;;;;;15.10;6.53;;;;;;;3.51;53.87;100820.22;123570;1102;104366;-79
2022/04/04 06:48:02;;;;;;;14.47;6.40;;;;;;;3.55;52.43;100809.27;123763;1102;103026;-77
2022/04/04 06:50:36;;;;;;;13.60;6.53;;;;;;;3.68;54.80;100807.52;124210;1102;104370;-80
2022/04/04 06:53:10;;;;;;;15.58;6.28;;;;;;;3.78;53.70;100812.52;124349;1105;104200;-80
2022/04/04 06:58:54;;;;;;;17.55;6.10;;;;;;;3.87;51.76;100815.73;123961;1105;104392;-78
2022/04/04 07:01:29;;;;;;;12.30;5.73;;;;;;;3.96;49.43;100821.55;123816;1105;104345;-78
2022/04/04 07:04:24;;;;;;;13.57;6.03;;;;;;;4.10;49.18;100824.19;124306;1105;104245;-79
2022/04/04 07:09:59;;;;;;;17.90;6.30;;;;;;;4.27;47.13;100825.28;124462;1105;104414;-78
2022/04/04 07:12:33;;;;;;;16.35;5.90;;;;;;;4.44;47.38;100829.91;123791;1105;104350;-79
2022/04/04 07:15:10;;;;;;;16.73;6.67;;;;;;;4.52;48.59;100826.89;124354;1105;104280;-78
2022/04/04 07:18:17;;;;;;;13.27;6.00;;;;;;;4.57;47.76;100833.31;124604;1105;104229;-79
2022/04/04 07:21:28;;;;;;;14.27;6.57;;;;;;;4.62;46.30;100837.98;124081;1105;104474;-76
2022/04/04 07:24:13;;;;;;;16.13;6.90;;;;;;;4.82;45.89;100838.39;123937;1105;104376;-78
2022/04/04 07:27:00;;;;;;;15.38;6.53;;;;;;;4.99;44.51;100822.15;124021;1105;104305;-78
2022/04/04 07:29:41;;;;;;;13.90;6.43;;;;;;;5.01;47.48;100809.23;124809;1105;102966;-80
2022/04/04 07:32:33;;;;;;;13.17;6.00;;;;;;;5.14;44.28;100824.83;125004;1105;104287;-77
2022/04/04 07:35:29;;;;;;;14.63;6.00;;;;;;;5.22;44.91;100840.92;124401;1105;104431;-78
2022/04/04 07:38:22;;;;;;;13.63;5.77;;;;;;;5.26;45.35;100842.00;124939;1105;104290;-81
2022/04/04 07:41:03;;;;;;;12.77;5.73;;;;;;;5.33;43.48;100845.08;124835;1106;119831;-78
2022/04/04 07:43:53;;;;;;;14.23;5.90;;;;;;;5.45;45.39;100838.83;124452;1102;104304;-78
2022/04/04 07:46:41;;;;;;;15.53;6.17;;;;;;;5.51;44.03;100847.91;125000;1098;104255;-77
2022/04/04 07:49:29;;;;;;;17.03;6.10;;;;;;;5.51;42.05;100850.50;124915;1099;104223;-80
2022/04/04 07:52:06;;;;;;;17.03;6.37;;;;;;;5.59;43.11;100853.58;124850;1099;104446;-77
2022/04/04 07:54:36;;;;;;;12.23;5.77;;;;;;;5.58;43.04;100851.80;125031;1096;104153;-77
2022/04/04 07:57:07;;;;;;;14.15;6.20;;;;;;;5.57;43.51;100842.19;124773;1099;104274;-78
2022/04/04 07:59:45;;;;;;;12.35;5.50;;;;;;;5.59;42.13;100840.56;125410;1099;104286;-76
2022/04/04 08:02:26;;;;;;;18.27;6.53;;;;;;;5.57;42.27;100845.67;125240;1099;104251;-76
2022/04/04 08:05:07;;;;;;;13.87;5.10;;;;;;;5.54;41.52;100845.48;125787;1099;104345;-79
2022/04/04 08:08:13;;;;;;;12.10;5.60;;;;;;;5.62;42.71;100837.27;126896;1099;103914;-82
2022/04/04 08:11:19;;;;;;;12.80;5.97;;;;;;;5.70;42.43;100836.93;125275;1099;104155;-79
2022/04/04 08:13:56;;;;;;;13.23;5.67;;;;;;;5.74;41.35;100832.80;124394;1099;104297;-78
2022/04/04 08:16:28;;;;;;;18.60;6.50;;;;;;;5.84;42.10;100824.71;124136;1099;104287;-78
2022/04/04 08:19:02;;;;;;;10.33;5.20;;;;;;;5.85;40.60;100799.59;123977;1099;104294;-79
2022/04/04 08:21:46;;;;;;;12.93;5.67;;;;;;;6.00;41.40;100837.00;124670;1099;104575;-79
2022/04/04 08:24:23;;;;;;;14.10;6.20;;;;;;;6.02;41.88;100824.06;123993;1099;107353;-78
2022/04/04 08:26:55;;;;;;;11.57;5.40;;;;;;;6.05;41.08;100829.46;124530;1099;104328;-79
2022/04/04 08:29:30;;;;;;;13.65;5.45;;;;;;;6.10;42.82;100831.51;124301;1099;104316;-78
2022/04/04 08:32:10;;;;;;;12.57;5.37;;;;;;;6.17;41.92;100826.66;124415;1099;104226;-79
2022/04/04 08:34:49;;;;;;;14.83;6.17;;;;;;;6.17;41.33;100821.45;124688;1099;119385;-79
2022/04/04 08:37:36;;;;;;;13.43;5.77;;;;;;;6.24;41.38;100821.01;124291;1101;104386;-80
2022/04/04 08:40:11;;;;;;;12.37;5.73;;;;;;;6.26;41.55;100817.69;124025;1102;104437;-79
2022/04/04 08:42:44;;;;;;;12.80;5.50;;;;;;;6.29;40.61;100819.55;123927;1102;104371;-78
2022/04/04 08:45:34;;;;;;;10.70;5.10;;;;;;;6.26;38.46;100809.87;123779;1102;104421;-79
2022/04/04 08:48:09;;;;;;;12.07;5.63;;;;;;;6.17;39.04;100808.41;124844;1099;104363;-79
2022/04/04 08:50:46;;;;;;;11.43;5.33;;;;;;;6.25;41.18;100807.18;123619;1099;104353;-79
2022/04/04 08:53:17;;;;;;;10.03;5.73;;;;;;;6.39;41.17;100811.47;123631;1099;104286;-78
2022/04/04 08:55:50;;;;;;;14.43;6.63;;;;;;;6.48;40.68;100809.39;123395;1099;104552;-78
2022/04/04 08:58:27;;;;;;;12.03;5.73;;;;;;;6.41;38.47;100815.05;123848;1099;104546;-78
2022/04/04 09:01:11;;;;;;;;;;;;;;;6.40;38.80;100807.14;124240;1099;104325;-79
2022/04/04 09:03:43;;;;;;;12.17;5.40;;;;;;;6.40;39.26;100810.64;125290;1099;104275;-78
2022/04/04 09:06:25;;;;;;;11.93;5.77;;;;;;;6.38;39.70;100800.95;125341;1099;104818;-77
2022/04/04 09:12:43;;;;;;;13.03;6.27;;;;;;;6.70;41.24;100784.53;125354;1099;104284;-79
2022/04/04 09:16:01;;;;;;;11.83;5.37;;;;;;;6.88;40.57;100784.63;124542;1102;104502;-78
2022/04/04 09:18:46;;;;;;;13.17;5.93;;;;;;;6.92;38.92;100784.00;124994;1099;104104;-79
2022/04/04 09:21:50;;;;;;;11.47;5.20;;;;;;;6.96;39.50;100780.72;124840;1099;105765;-77
2022/04/04 09:24:56;;;;;;;13.30;5.70;;;;;;;6.94;37.99;100771.92;124795;1099;104242;-77
2022/04/04 09:27:30;;;;;;;13.17;6.00;;;;;;;7.11;40.26;100762.41;124088;1099;104342;-78
2022/04/04 09:30:31;;;;;;;12.13;5.83;;;;;;;7.19;37.88;100750.66;125650;1099;104268;-79
2022/04/04 09:41:28;;;;;;;12.45;6.10;;;;;;;7.25;38.79;100767.48;124650;1102;104210;-78
2022/04/04 09:44:16;;;;;;;13.40;6.12;;;;;;;7.28;38.64;100763.31;124490;1102;104186;-80
2022/04/04 09:46:59;;;;;;;13.93;6.20;;;;;;;7.29;38.37;100753.75;124753;1102;104319;-78
2022/04/04 09:49:39;;;;;;;15.93;5.87;;;;;;;7.27;37.99;100760.62;123659;1102;104277;-81
2022/04/04 09:52:12;;;;;;;13.77;5.97;;;;;;;7.23;37.34;100753.42;123484;1103;107229;-79
2022/04/04 09:54:54;;;;;;;10.95;5.85;;;;;;;7.26;38.08;100758.81;124219;1102;104248;-79
2022/04/04 09:57:41;;;;;;;11.30;5.90;;;;;;;7.25;38.76;100760.53;124382;1102;102562;-78
2022/04/04 10:00:30;;;;;;;12.43;5.87;;;;;;;7.38;40.09;100754.23;124172;1102;104306;-79
2022/04/04 10:03:04;;;;;;;16.03;6.60;;;;;;;7.51;39.54;100741.02;124398;1102;104428;-79
2022/04/04 10:06:16;;;;;;;14.40;5.90;;;;;;;7.67;40.23;100744.42;124190;1102;104441;-79
2022/04/04 10:08:57;;;;;;;12.93;5.97;;;;;;;7.79;40.33;100746.75;125046;1102;104249;-79
2022/04/04 10:11:34;;;;;;;14.77;6.40;;;;;;;7.83;39.40;100744.37;124509;1105;104272;-78
2022/04/04 10:14:09;;;;;;;11.57;6.00;;;;;;;7.90;39.27;100741.26;123475;1105;104425;-77
2022/04/04 10:19:44;;;;;;;13.10;6.40;;;;;;;8.05;38.08;100737.61;125429;1105;104361;-78
2022/04/04 10:22:42;;;;;;;15.00;6.40;;;;;;;8.04;38.82;100746.26;124470;1105;104465;-79
2022/04/04 10:28:35;;;;;;;13.93;6.53;;;;;;;8.09;37.53;100750.02;126280;1105;101202;-79
2022/04/04 10:31:27;;;;;;;14.10;6.63;;;;;;;8.03;37.23;100747.10;124657;1105;102881;-78
2022/04/04 10:34:32;;;;;;;15.13;6.20;;;;;;;7.95;37.71;100744.10;124885;1106;106877;-79
2022/04/04 10:37:36;;;;;;;15.87;6.40;;;;;;;7.98;37.93;100748.56;125363;1102;104194;-77
2022/04/04 10:43:56;;;;;;;15.23;6.30;;;;;;;8.27;37.98;100735.24;125539;1102;104431;-82
2022/04/04 10:46:51;;;;;;;13.43;6.60;;;;;;;8.36;37.37;100731.27;125048;1102;104350;-78
2022/04/04 10:49:47;;;;;;;12.60;6.25;;;;;;;8.43;37.54;100741.19;125182;1102;104242;-79
2022/04/04 10:52:43;;;;;;;13.17;6.23;;;;;;;8.55;37.83;100735.69;124559;1102;104347;-79
2022/04/04 10:56:10;;;;;;;12.77;6.53;;;;;;;8.62;37.95;100736.05;124385;1102;104431;-81
2022/04/04 10:59:28;;;;;;;;;;;;;;;;;;;;;
2022/04/04 11:02:35;;;;;;;13.78;6.35;;;;;;;8.67;38.13;100720.58;125614;1105;102410;-81
2022/04/04 11:08:44;;;;;;;13.37;6.77;;;;;;;8.83;37.96;100724.80;123950;1102;104418;-79
2022/04/04 11:11:41;;;;;;;16.60;6.65;;;;;;;8.83;37.63;100716.95;123897;1102;104367;-80
2022/04/04 11:14:45;;;;;;;16.03;6.67;;;;;;;8.89;37.44;100714.61;124171;1102;104252;-78
2022/04/04 11:17:54;;;;;;;15.57;7.23;;;;;;;9.06;38.06;100715.37;124540;1102;104713;-79
2022/04/04 11:20:34;;;;;;;18.70;7.60;;;;;;;9.28;38.42;100701.52;124179;1102;104425;-78
2022/04/04 11:23:12;;;;;;;16.07;6.83;;;;;;;9.41;37.83;100695.12;124154;1101;104466;-78
2022/04/04 11:26:01;;;;;;;14.40;6.37;;;;;;;9.39;37.34;100701.11;124371;1099;104528;-78
2022/04/04 11:28:38;;;;;;;16.57;6.60;;;;;;;9.31;36.70;100703.39;124076;1102;104431;-79
2022/04/04 11:31:15;;;;;;;16.03;6.80;;;;;;;9.27;38.11;100707.60;123787;1102;104261;-78
2022/04/04 11:33:54;;;;;;;14.57;6.97;;;;;;;9.32;37.51;100690.36;123914;1102;104364;-81
2022/04/04 11:36:28;;;;;;;14.33;6.97;;;;;;;9.48;37.74;100688.41;123822;1102;104258;-78
2022/04/04 11:39:08;;;;;;;15.37;7.03;;;;;;;9.57;37.80;100696.66;123513;1102;104315;-78
2022/04/04 11:41:46;;;;;;;16.67;7.10;;;;;;;9.59;37.74;100695.00;123354;1102;104365;-79
2022/04/04 11:44:34;;;;;;;17.17;7.57;;;;;;;9.55;37.77;100690.44;123535;1102;104350;-80
2022/04/04 11:47:18;;;;;;;13.33;6.37;;;;;;;9.57;38.42;100680.95;123570;1102;104322;-80
2022/04/04 11:49:58;;;;;;;17.33;8.50;;;;;;;9.66;37.91;100683.04;124382;1103;104719;-80
2022/04/04 11:52:31;;;;;;;14.40;7.53;;;;;;;9.69;37.60;100670.98;123576;1102;104411;-78
2022/04/04 11:55:16;;;;;;;15.00;7.00;;;;;;;9.68;36.91;100684.02;123028;1102;104275;-79
2022/04/04 11:57:52;;;;;;;14.27;6.93;;;;;;;9.53;37.23;100679.02;123012;1105;104421;-80
2022/04/04 12:00:35;;;;;;;11.85;6.25;;;;;;;9.46;36.02;100685.72;123177;1102;104540;-79
2022/04/04 12:03:19;;;;;;;14.03;6.43;;;;;;;9.40;36.36;100679.34;123800;1102;104433;-79
2022/04/04 12:06:05;;;;;;;13.53;6.83;;;;;;;9.34;36.34;100678.22;124467;1102;104195;-80
2022/04/04 12:08:47;;;;;;;15.00;6.73;;;;;;;9.30;36.94;100681.55;124198;1102;104354;-80
2022/04/04 12:11:33;;;;;;;13.67;6.47;;;;;;;9.29;36.66;100679.75;124213;1102;104414;-78
2022/04/04 12:14:17;;;;;;;15.83;7.33;;;;;;;9.11;35.87;100676.32;123783;1102;104753;-80
2022/04/04 12:16:56;;;;;;;13.63;6.63;;;;;;;8.96;36.13;100676.52;123991;1102;104281;-82
2022/04/04 12:19:30;;;;;;;14.73;6.80;;;;;;;8.94;36.14;100666.02;123967;1099;104451;-79
2022/04/04 12:24:55;;;;;;;16.73;7.07;;;;;;;9.12;37.15;100665.03;123888;1100;104255;-80
2022/04/04 12:25:00;;;;;;;14.23;6.53;;;;;;;9.25;36.57;100662.10;123865;1102;104328;-78
2022/04/04 12:27:34;;;;;;;12.57;6.63;;;;;;;9.13;36.29;100664.19;123786;1099;104440;-80
2022/04/04 12:30:08;;;;;;;16.85;7.28;;;;;;;8.94;35.88;100670.33;123580;1099;104303;-80
2022/04/04 12:32:46;;;;;;;15.13;6.67;;;;;;;8.96;36.88;100656.50;124010;1099;104379;-79
2022/04/04 12:35:23;;;;;;;14.10;7.17;;;;;;;8.98;36.46;100654.83;123726;1102;104399;-79
2022/04/04 12:37:59;;;;;;;13.77;7.10;;;;;;;9.00;36.91;100647.94;123519;1100;104485;-78
2022/04/04 12:40:34;;;;;;;14.00;6.70;;;;;;;9.05;36.75;100648.14;123672;1100;104297;-78
2022/04/04 12:43:15;;;;;;;25.23;7.73;;;;;;;9.11;36.58;100643.17;124159;1102;104351;-79
2022/04/04 12:45:51;;;;;;;14.37;7.13;;;;;;;9.21;36.90;100644.49;124356;1099;104309;-78